Time,TemperatureF,DewpointF,PressureIn,WindDirection,WindDirectionDegrees,WindSpeedMPH,WindSpeedGustMPH,Humidity,HourlyPrecipIn,Conditions,Clouds,dailyrainin,SoftwareType,DateUTC
2013-01-11 00:42:00,27.0,23.0,30.26,NW,310,18.0,22.0,84,-99.99,,,-99.99,,2013-01-11 09:42:00,
2013-01-11 01:42:00,28.0,24.0,30.27,NW,320,13.0,22.0,84,-99.99,,,-99.99,,2013-01-11 10:42:00,
2013-01-11 02:42:00,28.0,24.0,30.25,NW,310,9.0,17.0,84,-99.99,,,-99.99,,2013-01-11 11:42:00,
2013-01-11 03:42:00,28.0,23.0,30.25,NW,320,13.0,21.0,81,-99.99,,,-99.99,,2013-01-11 12:42:00,
2013-01-11 04:42:00,28.0,25.0,30.23,NW,320,13.0,20.0,88,-99.99,,,-99.99,,2013-01-11 13:42:00,
2013-01-11 05:42:00,27.0,26.0,30.22,NW,320,10.0,18.0,96,-99.99,,,-99.99,,2013-01-11 14:42:00,
2013-01-11 06:42:00,27.0,26.0,30.21,NW,310,10.0,16.0,96,-99.99,,,-99.99,,2013-01-11 15:42:00,
2013-01-11 07:42:00,27.0,26.0,30.20,NW,310,13.0,17.0,96,-99.99,,,-99.99,,2013-01-11 16:42:00,
2013-01-11 08:42:00,27.0,26.0,30.20,NW,310,11.0,18.0,96,-99.99,,,-99.99,,2013-01-11 17:42:00,
2013-01-11 09:42:00,27.0,26.0,30.20,NW,310,14.0,17.0,96,-99.99,,,-99.99,,2013-01-11 18:42:00,
2013-01-11 10:42:00,27.0,26.0,30.20,NW,310,15.0,20.0,96,-99.99,,,-99.99,,2013-01-11 19:42:00,
2013-01-11 11:42:00,28.0,27.0,30.20,NW,320,13.0,20.0,95,-99.99,,,-99.99,,2013-01-11 20:42:00,
2013-01-11 11:52:00,28.0,27.0,30.20,NW,320,13.0,20.0,95,-99.99,,,-99.99,,2013-01-11 20:52:00,
2013-01-11 12:00:00,28.0,27.0,30.18,NNW,330,10.0,16.0,95,-99.99,,,-99.99,,2013-01-11 21:00:00,
2013-01-11 12:42:00,28.0,27.0,30.18,NNW,330,10.0,16.0,95,-99.99,,,-99.99,,2013-01-11 21:42:00,
2013-01-11 12:52:00,28.0,27.0,30.18,NNW,330,10.0,16.0,95,-99.99,,,-99.99,,2013-01-11 21:52:00,
2013-01-11 13:00:00,28.0,27.0,30.18,NW,320,11.0,16.0,95,-99.99,,,-99.99,,2013-01-11 22:00:00,
2013-01-11 13:42:00,28.0,27.0,30.18,NW,320,11.0,16.0,95,-99.99,,,-99.99,,2013-01-11 22:42:00,
2013-01-11 13:52:00,28.0,27.0,30.18,NW,320,11.0,16.0,95,-99.99,,,-99.99,,2013-01-11 22:52:00,
2013-01-11 14:00:00,28.0,27.0,30.18,NW,310,9.0,15.0,95,-99.99,,,-99.99,,2013-01-11 23:00:00,
2013-01-11 14:42:00,28.0,27.0,30.18,NW,310,9.0,15.0,95,-99.99,,,-99.99,,2013-01-11 23:42:00,
2013-01-11 14:52:00,28.0,27.0,30.18,NW,310,9.0,15.0,95,-99.99,,,-99.99,,2013-01-11 23:52:00,
2013-01-11 15:00:00,28.0,27.0,30.19,NW,310,11.0,16.0,95,-99.99,,,-99.99,,2013-01-12 00:00:00,
2013-01-11 15:42:00,28.0,27.0,30.19,NW,310,11.0,16.0,95,-99.99,,,-99.99,,2013-01-12 00:42:00,
2013-01-11 15:52:00,28.0,27.0,30.19,NW,310,11.0,16.0,95,-99.99,,,-99.99,,2013-01-12 00:52:00,
2013-01-11 16:00:00,28.0,28.0,30.19,NW,320,9.0,15.0,100,-99.99,,,-99.99,,2013-01-12 01:00:00,
2013-01-11 16:42:00,28.0,28.0,30.19,NW,320,9.0,15.0,100,-99.99,,,-99.99,,2013-01-12 01:42:00,
2013-01-11 16:52:00,28.0,28.0,30.19,NW,320,9.0,15.0,100,-99.99,,,-99.99,,2013-01-12 01:52:00,
2013-01-11 17:00:00,28.0,27.0,30.19,NW,310,13.0,15.0,95,-99.99,,,-99.99,,2013-01-12 02:00:00,
2013-01-11 17:42:00,28.0,27.0,30.19,NW,310,13.0,15.0,95,-99.99,,,-99.99,,2013-01-12 02:42:00,
2013-01-11 17:52:00,28.0,27.0,30.19,NW,310,13.0,15.0,95,-99.99,,,-99.99,,2013-01-12 02:52:00,
2013-01-11 18:00:00,28.0,27.0,30.20,NW,310,9.0,15.0,95,-99.99,,,-99.99,,2013-01-12 03:00:00,
2013-01-11 18:42:00,28.0,27.0,30.20,NW,310,9.0,15.0,95,-99.99,,,-99.99,,2013-01-12 03:42:00,
2013-01-11 18:52:00,28.0,27.0,30.20,NW,310,9.0,15.0,95,-99.99,,,-99.99,,2013-01-12 03:52:00,
2013-01-11 19:00:00,29.0,28.0,30.21,NW,320,7.0,13.0,96,-99.99,,,-99.99,,2013-01-12 04:00:00,
2013-01-11 19:42:00,29.0,28.0,30.21,NW,320,7.0,13.0,96,-99.99,,,-99.99,,2013-01-12 04:42:00,
2013-01-11 19:52:00,29.0,28.0,30.21,NW,320,7.0,13.0,96,-99.99,,,-99.99,,2013-01-12 04:52:00,
2013-01-11 20:00:00,29.0,28.0,30.22,NW,310,10.0,14.0,96,-99.99,,,-99.99,,2013-01-12 05:00:00,
2013-01-11 20:42:00,29.0,28.0,30.22,NW,310,10.0,14.0,96,-99.99,,,-99.99,,2013-01-12 05:42:00,
2013-01-11 20:52:00,29.0,28.0,30.22,NW,310,10.0,14.0,96,-99.99,,,-99.99,,2013-01-12 05:52:00,
2013-01-11 21:00:00,29.0,27.0,30.22,NW,310,7.0,14.0,92,-99.99,,,-99.99,,2013-01-12 06:00:00,
2013-01-11 21:42:00,29.0,27.0,30.22,NW,310,7.0,14.0,92,-99.99,,,-99.99,,2013-01-12 06:42:00,
2013-01-11 21:52:00,29.0,27.0,30.22,NW,310,7.0,14.0,92,-99.99,,,-99.99,,2013-01-12 06:52:00,
2013-01-11 22:00:00,29.0,28.0,30.25,NW,310,10.0,14.0,96,-99.99,,,-99.99,,2013-01-12 07:00:00,
2013-01-11 22:42:00,29.0,28.0,30.25,NW,310,10.0,14.0,96,-99.99,,,-99.99,,2013-01-12 07:42:00,
2013-01-11 22:52:00,29.0,28.0,30.25,NW,310,10.0,14.0,96,-99.99,,,-99.99,,2013-01-12 07:52:00,